Dubuque, Iowa
Current Conditions -  °F | °C
As of 10:16 AM on Thursday 29 Jan 2015 (Local Time) from KDBQ Reporting Station
Overcast Overcast  
Wind Chill: 21°   Ceiling: 1800
Heat Index: 33°   Visibility: 8mi
Dew Point: 28°   Wind: 21mph
Humidity: 82%   Direction: 330°NNW
Pressure: 30.02"   Gusts: 28mph
Location:  42.5°N, 90.66°W
Report Text: KDBQ 291616Z 33018G24KT 8SM BKN018 OVC022 01/M02 A3002 RMK AO2 T00061022
Loading
Personal Weather Stations






























Interactive Weather Map New forecast layout! Learn more

10-Day Weather Forecast

Advertisements
Track Severe Weather on mobile